createdAt,value
2018-05-17T00:00:51.559Z,16.70
2018-05-17T00:03:17.731Z,16.80
2018-05-17T00:05:43.909Z,16.70
2018-05-17T00:08:10.040Z,16.70
2018-05-17T00:10:36.244Z,16.70
2018-05-17T00:13:02.501Z,16.70
2018-05-17T00:15:28.674Z,16.70
2018-05-17T00:17:54.819Z,16.70
2018-05-17T00:20:21.054Z,16.60
2018-05-17T00:22:47.269Z,16.60
2018-05-17T00:25:13.428Z,16.60
2018-05-17T00:27:39.592Z,16.60
2018-05-17T00:30:05.828Z,16.60
2018-05-17T00:32:32.048Z,16.30
2018-05-17T00:34:58.198Z,16.20
2018-05-17T00:37:24.395Z,16.20
2018-05-17T00:39:50.541Z,16.20
2018-05-17T00:42:16.719Z,16.10
2018-05-17T00:44:42.877Z,15.90
2018-05-17T00:47:09.024Z,15.90
2018-05-17T00:49:35.168Z,15.90
2018-05-17T00:52:01.339Z,15.90
2018-05-17T00:54:27.516Z,15.90
2018-05-17T00:56:53.741Z,16.00
2018-05-17T00:59:20.632Z,16.00
2018-05-17T01:01:46.805Z,16.00
2018-05-17T01:04:13.720Z,16.00
2018-05-17T01:06:39.897Z,16.00
2018-05-17T01:09:06.054Z,15.90
2018-05-17T01:11:32.204Z,16.00
2018-05-17T01:13:58.383Z,16.10
2018-05-17T01:16:24.556Z,16.00
2018-05-17T01:18:50.810Z,15.90
2018-05-17T01:21:17.689Z,16.00
2018-05-17T01:23:43.879Z,15.90
2018-05-17T01:26:10.771Z,15.80
2018-05-17T01:28:36.923Z,15.80
2018-05-17T01:31:03.093Z,15.80
2018-05-17T01:33:29.255Z,15.60
2018-05-17T01:35:55.436Z,15.60
2018-05-17T01:38:24.622Z,15.60
2018-05-17T01:40:51.532Z,15.70
2018-05-17T01:43:17.696Z,15.60
2018-05-17T01:45:44.584Z,15.70
2018-05-17T01:48:10.791Z,15.70
2018-05-17T01:50:36.976Z,15.70
2018-05-17T01:53:03.128Z,15.90
2018-05-17T01:55:29.360Z,15.90
2018-05-17T01:57:55.499Z,15.70
2018-05-17T02:00:21.675Z,15.70
2018-05-17T02:02:47.877Z,15.80
2018-05-17T02:05:14.035Z,15.70
2018-05-17T02:07:40.218Z,15.60
2018-05-17T02:10:06.380Z,15.70
2018-05-17T02:12:32.565Z,15.80
2018-05-17T02:14:58.775Z,15.80
2018-05-17T02:17:24.916Z,15.70
2018-05-17T02:19:51.089Z,15.80
2018-05-17T02:22:17.745Z,15.80
2018-05-17T02:24:44.031Z,15.80
2018-05-17T02:27:10.183Z,15.80
2018-05-17T02:29:36.323Z,15.80
2018-05-17T02:32:03.338Z,15.70
2018-05-17T02:34:29.503Z,15.70
2018-05-17T02:36:55.711Z,15.70
2018-05-17T02:39:21.867Z,15.80
2018-05-17T02:41:48.080Z,15.80
2018-05-17T02:44:14.294Z,15.80
2018-05-17T02:46:40.503Z,15.80
2018-05-17T02:49:06.710Z,15.80
2018-05-17T02:51:33.004Z,15.80
2018-05-17T02:53:59.216Z,15.70
2018-05-17T02:56:26.187Z,15.70
2018-05-17T02:58:52.401Z,15.70
2018-05-17T03:01:18.558Z,15.60
2018-05-17T03:03:44.725Z,15.50
2018-05-17T03:06:10.861Z,15.50
2018-05-17T03:08:37.015Z,15.50
2018-05-17T03:11:03.213Z,15.40
2018-05-17T03:13:30.128Z,15.20
2018-05-17T03:15:56.299Z,15.20
2018-05-17T03:18:23.222Z,15.10
2018-05-17T03:20:49.362Z,14.90
2018-05-17T03:23:16.299Z,15.00
2018-05-17T03:25:42.455Z,15.00
2018-05-17T03:28:08.600Z,15.00
2018-05-17T03:30:34.864Z,15.00
2018-05-17T03:33:01.007Z,14.90
2018-05-17T03:35:27.216Z,14.70
2018-05-17T03:37:53.363Z,14.70
2018-05-17T03:40:19.519Z,14.70
2018-05-17T03:42:45.644Z,14.70
2018-05-17T03:45:11.837Z,14.60
2018-05-17T03:47:38.977Z,14.60
2018-05-17T03:50:05.158Z,14.60
2018-05-17T03:52:31.336Z,14.50
2018-05-17T03:54:57.496Z,14.60
2018-05-17T03:57:23.692Z,14.60
2018-05-17T03:59:50.608Z,14.50
2018-05-17T04:02:28.972Z,14.50
2018-05-17T04:05:07.321Z,14.40
2018-05-17T04:07:33.422Z,14.40
2018-05-17T04:09:59.652Z,14.30
2018-05-17T04:12:25.789Z,14.40
2018-05-17T04:14:51.966Z,14.50
2018-05-17T04:17:18.218Z,14.60
2018-05-17T04:19:44.428Z,14.50
2018-05-17T04:22:10.620Z,14.30
2018-05-17T04:24:36.755Z,14.20
2018-05-17T04:27:02.908Z,14.30
2018-05-17T04:29:29.208Z,14.30
2018-05-17T04:31:55.730Z,14.30
2018-05-17T04:34:21.958Z,14.30
2018-05-17T04:36:52.039Z,14.30
2018-05-17T04:39:18.631Z,14.30
2018-05-17T04:41:44.928Z,14.30
2018-05-17T04:44:11.725Z,14.30
2018-05-17T04:46:38.833Z,14.30
2018-05-17T04:49:05.138Z,14.20
2018-05-17T04:51:31.461Z,14.40
2018-05-17T04:53:57.694Z,14.20
2018-05-17T04:56:24.043Z,14.40
2018-05-17T04:58:50.414Z,14.20
2018-05-17T05:01:17.406Z,14.30
2018-05-17T05:03:43.876Z,14.30
2018-05-17T05:06:10.789Z,14.20
2018-05-17T05:08:37.117Z,14.20
2018-05-17T05:11:08.743Z,14.00
2018-05-17T05:13:35.282Z,13.90
2018-05-17T05:16:01.677Z,13.90
2018-05-17T05:18:27.947Z,13.90
2018-05-17T05:20:58.448Z,14.00
2018-05-17T05:23:25.581Z,13.90
2018-05-17T05:25:56.780Z,13.80
2018-05-17T05:28:23.051Z,13.90
2018-05-17T05:30:49.375Z,14.00
2018-05-17T05:33:15.794Z,13.90
2018-05-17T05:35:42.516Z,14.00
2018-05-17T05:38:10.599Z,14.10
2018-05-17T05:40:36.823Z,14.20
2018-05-17T05:43:07.093Z,14.10
2018-05-17T05:45:34.652Z,14.20
2018-05-17T05:48:02.409Z,14.20
2018-05-17T05:53:06.036Z,13.80
2018-05-17T05:55:33.312Z,13.90
2018-05-17T05:57:59.613Z,13.80
2018-05-17T06:00:27.580Z,13.90
2018-05-17T06:02:55.140Z,13.80
2018-05-17T06:05:21.399Z,13.70
2018-05-17T06:07:47.654Z,13.70
2018-05-17T06:10:14.794Z,13.60
2018-05-17T06:12:41.007Z,13.60
2018-05-17T06:15:07.235Z,13.50
2018-05-17T06:17:33.465Z,13.50
2018-05-17T06:19:59.688Z,13.30
2018-05-17T06:22:25.922Z,13.30
2018-05-17T06:24:52.136Z,13.20
2018-05-17T06:27:22.758Z,13.30
2018-05-17T06:29:48.989Z,13.50
2018-05-17T06:32:15.219Z,13.50
2018-05-17T06:34:42.258Z,13.40
2018-05-17T06:37:13.086Z,13.40
2018-05-17T06:39:40.300Z,13.50
2018-05-17T06:42:06.606Z,13.50
2018-05-17T06:44:32.844Z,13.50
2018-05-17T06:46:59.173Z,13.50
2018-05-17T06:49:25.395Z,13.60
2018-05-17T06:51:52.162Z,13.70
2018-05-17T06:54:18.549Z,13.70
2018-05-17T06:56:44.785Z,13.70
2018-05-17T06:59:11.060Z,13.70
2018-05-17T07:01:42.725Z,13.50
2018-05-17T07:04:09.083Z,13.40
2018-05-17T07:06:35.864Z,13.40
2018-05-17T07:09:02.295Z,13.40
2018-05-17T07:11:28.732Z,13.40
2018-05-17T07:13:55.823Z,13.50
2018-05-17T07:16:22.212Z,13.60
2018-05-17T07:18:48.651Z,13.50
2018-05-17T07:21:14.937Z,13.60
2018-05-17T07:23:50.468Z,13.60
2018-05-17T07:26:18.115Z,13.60
2018-05-17T07:28:44.640Z,13.50
2018-05-17T07:31:11.213Z,13.60
2018-05-17T07:33:37.467Z,13.60
2018-05-17T07:36:04.706Z,13.50
2018-05-17T07:38:31.924Z,13.50
2018-05-17T07:40:59.312Z,13.60
2018-05-17T07:43:27.787Z,13.50
2018-05-17T07:45:54.004Z,13.60
2018-05-17T07:48:22.844Z,13.60
2018-05-17T07:50:49.212Z,13.60
2018-05-17T07:53:15.521Z,13.60
2018-05-17T07:55:46.394Z,13.60
2018-05-17T07:58:12.622Z,13.50
2018-05-17T08:00:38.966Z,13.70
2018-05-17T08:03:05.290Z,13.70
2018-05-17T08:05:37.079Z,13.80
2018-05-17T08:08:03.961Z,13.80
2018-05-17T08:10:34.179Z,13.70
2018-05-17T08:13:01.039Z,13.70
2018-05-17T08:15:27.430Z,13.80
2018-05-17T08:17:54.697Z,13.90
2018-05-17T08:20:22.540Z,13.80
2018-05-17T08:22:49.065Z,13.90
2018-05-17T08:25:15.544Z,14.00
2018-05-17T08:27:41.961Z,14.00
2018-05-17T08:30:08.565Z,14.00
2018-05-17T08:32:35.504Z,13.90
2018-05-17T08:35:03.052Z,14.00
2018-05-17T08:37:33.162Z,13.90
2018-05-17T08:40:00.213Z,14.10
2018-05-17T08:42:26.823Z,14.10
2018-05-17T08:44:53.097Z,14.00
2018-05-17T08:47:19.746Z,14.20
2018-05-17T08:49:46.406Z,14.10
2018-05-17T08:52:12.608Z,14.20
2018-05-17T08:54:38.948Z,14.20
2018-05-17T08:57:06.137Z,14.20
2018-05-17T08:59:33.266Z,14.30
2018-05-17T09:01:59.537Z,14.30
2018-05-17T09:04:26.581Z,14.20
2018-05-17T09:06:52.847Z,14.40
2018-05-17T09:09:19.053Z,14.40
2018-05-17T09:11:45.288Z,14.50
2018-05-17T09:14:12.805Z,14.50
2018-05-17T09:16:40.126Z,14.60
2018-05-17T09:19:07.322Z,14.60
2018-05-17T09:21:33.525Z,14.60
2018-05-17T09:24:00.203Z,14.70
2018-05-17T09:26:27.205Z,14.70
2018-05-17T09:31:26.939Z,14.80
2018-05-17T09:33:58.460Z,14.80
2018-05-17T09:36:24.750Z,14.80
2018-05-17T09:38:51.314Z,14.80
2018-05-17T09:41:17.647Z,14.90
2018-05-17T09:43:44.668Z,15.00
2018-05-17T09:46:10.967Z,14.90
2018-05-17T09:48:38.008Z,15.00
2018-05-17T09:51:04.492Z,15.10
2018-05-17T09:53:30.765Z,15.20
2018-05-17T09:55:57.147Z,15.30
2018-05-17T09:58:23.570Z,15.30
2018-05-17T10:00:49.841Z,15.30
2018-05-17T10:03:16.466Z,15.40
2018-05-17T10:05:42.692Z,15.50
2018-05-17T10:08:09.031Z,15.40
2018-05-17T10:10:35.636Z,15.60
2018-05-17T10:13:01.873Z,15.70
2018-05-17T10:15:28.192Z,15.90
2018-05-17T10:17:54.420Z,15.90
2018-05-17T10:20:20.739Z,16.00
2018-05-17T10:22:46.979Z,16.10
2018-05-17T10:25:13.491Z,16.10
2018-05-17T10:27:39.968Z,16.10
2018-05-17T10:30:06.335Z,16.10
2018-05-17T10:32:32.567Z,16.10
2018-05-17T10:34:59.552Z,16.20
2018-05-17T10:37:26.468Z,16.20
2018-05-17T10:39:52.687Z,16.30
2018-05-17T10:42:19.077Z,16.20
2018-05-17T10:44:45.393Z,16.40
2018-05-17T10:47:11.619Z,16.50
2018-05-17T10:49:38.008Z,16.60
2018-05-17T10:52:04.969Z,16.80
2018-05-17T10:54:32.148Z,17.00
2018-05-17T10:56:59.302Z,16.90
2018-05-17T10:59:26.050Z,17.10
2018-05-17T11:01:52.666Z,17.20
2018-05-17T11:04:23.641Z,17.20
2018-05-17T11:06:50.284Z,17.30
2018-05-17T11:09:16.916Z,17.30
2018-05-17T11:11:43.189Z,17.00
2018-05-17T11:14:09.510Z,17.20
2018-05-17T11:16:38.344Z,17.20
2018-05-17T11:19:04.608Z,17.20
2018-05-17T11:21:32.066Z,17.10
2018-05-17T11:23:59.028Z,17.00
2018-05-17T11:26:26.880Z,17.10
2018-05-17T11:28:56.307Z,17.40
2018-05-17T11:31:23.170Z,17.30
2018-05-17T11:33:49.615Z,17.20
2018-05-17T11:36:15.942Z,17.50
2018-05-17T11:38:42.327Z,17.60
2018-05-17T11:41:19.105Z,17.70
2018-05-17T11:43:46.240Z,17.90
2018-05-17T11:46:13.305Z,17.90
2018-05-17T11:48:40.437Z,17.90
2018-05-17T11:51:07.201Z,18.10
2018-05-17T11:53:34.088Z,17.90
2018-05-17T11:56:00.576Z,18.10
2018-05-17T11:58:26.981Z,18.10
2018-05-17T12:00:54.006Z,17.80
2018-05-17T12:03:20.284Z,18.10
2018-05-17T12:05:47.035Z,17.70
2018-05-17T12:08:16.729Z,18.00
2018-05-17T12:10:43.019Z,18.10
2018-05-17T12:13:14.548Z,18.10
2018-05-17T12:15:50.275Z,18.10
2018-05-17T12:21:22.520Z,18.20
2018-05-17T12:23:50.455Z,18.30
2018-05-17T12:26:17.316Z,18.40
2018-05-17T12:28:47.909Z,18.40
2018-05-17T12:31:14.135Z,18.60
2018-05-17T12:33:41.339Z,18.60
2018-05-17T12:36:11.820Z,18.50
2018-05-17T12:41:42.015Z,18.50
2018-05-17T12:44:11.854Z,18.40
2018-05-17T12:46:38.566Z,18.40
2018-05-17T12:49:04.817Z,18.30
2018-05-17T12:51:31.011Z,18.40
2018-05-17T12:53:57.735Z,18.50
2018-05-17T12:56:25.123Z,18.40
2018-05-17T12:59:03.329Z,18.60
2018-05-17T13:01:30.535Z,18.70
2018-05-17T13:06:30.651Z,18.70
2018-05-17T13:08:56.885Z,18.80
2018-05-17T13:11:29.319Z,18.90
2018-05-17T13:13:55.519Z,18.80
2018-05-17T13:16:22.931Z,18.80
2018-05-17T13:18:49.449Z,18.80
2018-05-17T13:21:28.805Z,18.90
2018-05-17T13:23:56.672Z,18.90
2018-05-17T13:26:23.707Z,19.20
2018-05-17T13:28:52.125Z,19.20
2018-05-17T13:31:18.344Z,19.20
2018-05-17T13:33:46.377Z,19.10
2018-05-17T13:36:12.615Z,19.10
2018-05-17T13:38:47.755Z,19.30
2018-05-17T13:41:19.689Z,19.60
2018-05-17T13:43:50.568Z,19.50
2018-05-17T13:46:17.569Z,19.60
2018-05-17T13:48:44.584Z,19.70
2018-05-17T13:51:11.080Z,19.50
2018-05-17T13:56:15.439Z,19.60
2018-05-17T13:58:42.633Z,19.50
2018-05-17T14:01:16.970Z,19.60
2018-05-17T14:03:43.408Z,19.60
2018-05-17T14:06:18.943Z,19.70
2018-05-17T14:08:45.580Z,19.70
2018-05-17T14:11:12.521Z,19.70
2018-05-17T14:13:47.886Z,19.70
2018-05-17T14:16:14.165Z,19.80
2018-05-17T14:18:41.269Z,19.70
2018-05-17T14:21:07.626Z,19.70
2018-05-17T14:23:35.326Z,19.90
2018-05-17T14:26:06.094Z,19.90
2018-05-17T14:28:33.507Z,20.00
2018-05-17T14:31:02.815Z,19.90
2018-05-17T14:33:34.585Z,20.00
2018-05-17T14:36:00.990Z,20.10
2018-05-17T14:38:31.191Z,20.00
2018-05-17T14:40:59.357Z,20.10
2018-05-17T14:43:26.183Z,20.10
2018-05-17T14:45:52.412Z,20.20
2018-05-17T14:48:19.244Z,20.10
2018-05-17T14:50:45.993Z,20.20
2018-05-17T14:53:16.919Z,20.30
2018-05-17T14:55:43.231Z,20.50
2018-05-17T14:58:09.377Z,20.60
2018-05-17T15:00:36.272Z,20.60
2018-05-17T15:03:06.962Z,20.60
2018-05-17T15:05:33.166Z,20.60
2018-05-17T15:07:59.413Z,20.50
2018-05-17T15:10:26.323Z,20.50
2018-05-17T15:12:57.043Z,20.50
2018-05-17T15:15:27.677Z,20.50
2018-05-17T15:18:07.096Z,20.60
2018-05-17T15:20:34.307Z,20.60
2018-05-17T15:23:01.171Z,20.60
2018-05-17T15:25:28.096Z,20.70
2018-05-17T15:30:33.025Z,20.80
2018-05-17T15:33:00.144Z,20.70
2018-05-17T15:35:34.448Z,20.60
2018-05-17T15:38:00.678Z,20.60
2018-05-17T15:40:26.918Z,20.80
2018-05-17T15:42:57.961Z,20.80
2018-05-17T15:45:24.954Z,20.80
2018-05-17T15:47:51.476Z,20.70
2018-05-17T15:50:23.121Z,20.70
2018-05-17T15:52:49.679Z,20.70
2018-05-17T15:55:16.523Z,20.80
2018-05-17T15:57:46.797Z,20.80
2018-05-17T16:00:13.760Z,20.70
2018-05-17T16:02:40.031Z,20.70
2018-05-17T16:05:06.655Z,20.50
2018-05-17T16:07:33.974Z,20.60
2018-05-17T16:10:00.234Z,20.70
2018-05-17T16:12:26.654Z,20.50
2018-05-17T16:14:53.097Z,20.60
2018-05-17T16:17:20.604Z,20.60
2018-05-17T16:19:48.735Z,20.60
2018-05-17T16:22:20.181Z,20.70
2018-05-17T16:24:46.708Z,20.70
2018-05-17T16:27:17.377Z,20.70
2018-05-17T16:29:44.173Z,20.60
2018-05-17T16:32:10.372Z,20.50
2018-05-17T16:34:37.613Z,20.50
2018-05-17T16:37:03.865Z,20.60
2018-05-17T16:39:30.867Z,20.60
2018-05-17T16:41:57.658Z,20.60
2018-05-17T16:44:23.938Z,20.40
2018-05-17T16:46:50.159Z,20.30
2018-05-17T16:49:17.019Z,20.50
2018-05-17T16:51:44.080Z,20.50
2018-05-17T16:56:53.249Z,20.60
2018-05-17T16:59:27.993Z,20.50
2018-05-17T17:01:55.127Z,20.60
2018-05-17T17:04:21.509Z,20.80
2018-05-17T17:06:56.504Z,21.20
2018-05-17T17:09:23.691Z,21.60
2018-05-17T17:11:50.474Z,21.80
2018-05-17T17:14:17.118Z,22.00
2018-05-17T17:16:43.399Z,22.20
2018-05-17T17:19:10.444Z,22.00
2018-05-17T17:21:37.068Z,22.30
2018-05-17T17:24:05.151Z,22.00
2018-05-17T17:26:31.600Z,22.10
2018-05-17T17:28:58.892Z,22.10
2018-05-17T17:31:27.056Z,22.10
2018-05-17T17:33:54.484Z,22.50
2018-05-17T17:36:21.842Z,22.00
2018-05-17T17:38:49.943Z,21.90
2018-05-17T17:41:16.935Z,21.60
2018-05-17T17:43:47.196Z,21.10
2018-05-17T17:46:19.295Z,20.70
2018-05-17T17:48:46.091Z,20.40
2018-05-17T17:51:24.967Z,19.80
2018-05-17T17:53:51.906Z,19.80
2018-05-17T17:58:51.180Z,19.60
2018-05-17T18:01:19.315Z,19.60
2018-05-17T18:03:47.548Z,19.40
2018-05-17T18:08:44.601Z,19.20
2018-05-17T18:11:11.290Z,19.10
2018-05-17T18:13:37.561Z,19.10
2018-05-17T18:16:05.264Z,19.00
2018-05-17T18:21:10.486Z,18.90
2018-05-17T18:23:40.064Z,18.80
2018-05-17T18:26:18.318Z,18.80
2018-05-17T18:28:46.088Z,18.70
2018-05-17T18:31:13.235Z,18.70
2018-05-17T18:33:39.723Z,18.60
2018-05-17T18:36:06.718Z,18.60
2018-05-17T18:38:32.955Z,18.40
2018-05-17T18:41:10.619Z,18.40
2018-05-17T18:43:44.407Z,18.40
2018-05-17T18:46:11.174Z,18.30
2018-05-17T18:48:40.314Z,18.20
2018-05-17T18:51:08.094Z,18.20
2018-05-17T18:56:14.056Z,18.00
2018-05-17T19:01:18.420Z,18.00
2018-05-17T19:03:46.850Z,17.90
2018-05-17T19:06:13.377Z,17.80
2018-05-17T19:11:31.061Z,17.70
2018-05-17T19:13:57.885Z,17.50
2018-05-17T19:16:24.308Z,17.60
2018-05-17T19:18:54.779Z,17.40
2018-05-17T19:21:21.698Z,17.40
2018-05-17T19:23:52.456Z,17.50
2018-05-17T19:26:22.681Z,17.40
2018-05-17T19:28:49.578Z,17.40
2018-05-17T19:31:16.039Z,17.30
2018-05-17T19:33:42.319Z,17.30
2018-05-17T19:36:09.222Z,17.20
2018-05-17T19:38:36.329Z,17.10
2018-05-17T19:41:02.580Z,17.10
2018-05-17T19:43:29.066Z,17.10
2018-05-17T19:46:01.315Z,17.10
2018-05-17T19:48:27.816Z,17.00
2018-05-17T19:50:54.265Z,16.90
2018-05-17T19:53:20.507Z,16.80
2018-05-17T19:55:46.688Z,16.80
2018-05-17T19:58:13.084Z,16.90
2018-05-17T20:00:39.487Z,16.90
2018-05-17T20:03:07.197Z,16.90
2018-05-17T20:05:33.368Z,16.90
2018-05-17T20:08:01.114Z,16.90
2018-05-17T20:10:27.553Z,16.90
2018-05-17T20:12:55.756Z,16.80
2018-05-17T20:15:21.994Z,16.80
2018-05-17T20:17:48.173Z,16.60
2018-05-17T20:20:14.514Z,16.70
2018-05-17T20:22:40.875Z,16.70
2018-05-17T20:25:07.064Z,16.80
2018-05-17T20:27:33.272Z,16.80
2018-05-17T20:30:00.119Z,16.70
2018-05-17T20:32:26.328Z,16.70
2018-05-17T20:34:52.480Z,16.70
2018-05-17T20:37:18.640Z,16.70
2018-05-17T20:39:44.795Z,16.60
2018-05-17T20:42:10.971Z,16.60
2018-05-17T20:44:37.124Z,16.70
2018-05-17T20:47:03.304Z,16.60
2018-05-17T20:49:29.868Z,16.70
2018-05-17T20:51:56.074Z,16.70
2018-05-17T20:54:25.598Z,16.50
2018-05-17T20:56:51.763Z,16.50
2018-05-17T20:59:17.879Z,16.40
2018-05-17T21:01:44.033Z,16.30
2018-05-17T21:04:10.186Z,16.30
2018-05-17T21:06:36.351Z,16.30
2018-05-17T21:09:02.564Z,16.30
2018-05-17T21:11:28.784Z,16.30
2018-05-17T21:13:54.922Z,16.30
2018-05-17T21:16:21.082Z,16.30
2018-05-17T21:18:48.131Z,16.30
2018-05-17T21:21:14.404Z,16.20
2018-05-17T21:23:40.604Z,16.20
2018-05-17T21:26:07.489Z,16.20
2018-05-17T21:28:33.670Z,16.20
2018-05-17T21:31:00.563Z,16.10
2018-05-17T21:33:26.932Z,16.00
2018-05-17T21:35:53.119Z,16.00
2018-05-17T21:38:19.284Z,15.90
2018-05-17T21:40:46.154Z,15.80
2018-05-17T21:43:12.326Z,15.90
2018-05-17T21:45:38.468Z,15.80
2018-05-17T21:48:04.635Z,15.90
2018-05-17T21:50:30.937Z,15.90
2018-05-17T21:52:57.863Z,15.70
2018-05-17T21:55:24.076Z,15.70
2018-05-17T21:57:50.962Z,15.70
2018-05-17T22:00:17.739Z,15.70
2018-05-17T22:02:43.933Z,15.80
2018-05-17T22:05:10.114Z,15.80
2018-05-17T22:07:36.364Z,15.80
2018-05-17T22:10:02.585Z,15.80
2018-05-17T22:12:28.839Z,15.70
2018-05-17T22:14:55.036Z,15.60
2018-05-17T22:17:21.205Z,15.60
2018-05-17T22:19:47.395Z,15.50
2018-05-17T22:22:13.607Z,15.40
2018-05-17T22:24:39.782Z,15.40
2018-05-17T22:27:05.915Z,15.40
2018-05-17T22:29:32.084Z,15.40
2018-05-17T22:31:58.270Z,15.40
2018-05-17T22:34:25.179Z,15.30
2018-05-17T22:36:51.383Z,15.30
2018-05-17T22:39:17.573Z,15.20
2018-05-17T22:41:43.775Z,15.10
2018-05-17T22:44:10.700Z,15.00
2018-05-17T22:46:37.629Z,15.00
2018-05-17T22:49:03.796Z,15.00
2018-05-17T22:51:30.010Z,15.00
2018-05-17T22:53:56.211Z,15.00
2018-05-17T22:56:34.461Z,15.00
2018-05-17T22:59:00.686Z,15.00
2018-05-17T23:01:26.831Z,15.00
2018-05-17T23:03:52.978Z,15.00
2018-05-17T23:06:19.124Z,14.90
2018-05-17T23:08:45.402Z,14.90
2018-05-17T23:11:11.566Z,14.90
2018-05-17T23:13:37.715Z,14.80
2018-05-17T23:16:03.926Z,14.80
2018-05-17T23:18:30.136Z,14.70
2018-05-17T23:20:56.287Z,14.70
2018-05-17T23:23:22.449Z,14.60
2018-05-17T23:25:48.565Z,14.60
2018-05-17T23:28:14.803Z,14.60
2018-05-17T23:30:40.938Z,14.60
2018-05-17T23:33:07.182Z,14.60
2018-05-17T23:35:33.331Z,14.60
2018-05-17T23:37:59.499Z,14.60
2018-05-17T23:40:37.738Z,14.60
2018-05-17T23:43:03.910Z,14.50
2018-05-17T23:45:30.806Z,14.60
2018-05-17T23:47:56.980Z,14.60
2018-05-17T23:50:23.197Z,14.50
2018-05-17T23:52:49.364Z,14.40
2018-05-17T23:55:15.535Z,14.30
2018-05-17T23:57:41.658Z,14.30
